createdAt,value
2023-05-05T00:00:26.890Z,98.29
2023-05-05T00:01:26.860Z,98.29
2023-05-05T00:02:26.937Z,98.39
2023-05-05T00:03:26.961Z,98.39
2023-05-05T00:04:26.817Z,98.91
2023-05-05T00:05:26.809Z,98.85
2023-05-05T00:06:26.785Z,98.65
2023-05-05T00:07:26.809Z,98.75
2023-05-05T00:08:26.809Z,98.85
2023-05-05T00:09:26.766Z,98.85
2023-05-05T00:10:26.735Z,99.26
2023-05-05T00:11:26.734Z,99.57
2023-05-05T00:12:26.747Z,99.77
2023-05-05T00:13:26.699Z,99.88
2023-05-05T00:14:26.689Z,99.77
2023-05-05T00:15:26.678Z,99.88
2023-05-05T00:16:26.711Z,99.88
2023-05-05T00:17:26.743Z,99.67
2023-05-05T00:18:26.684Z,99.67
2023-05-05T00:19:26.630Z,99.57
2023-05-05T00:20:26.605Z,99.57
2023-05-05T00:21:26.640Z,99.47
2023-05-05T00:22:26.611Z,99.37
2023-05-05T00:23:26.628Z,99.57
2023-05-05T00:24:26.588Z,99.77
2023-05-05T00:25:26.576Z,99.77
2023-05-05T00:26:26.583Z,99.88
2023-05-05T00:27:26.518Z,99.77
2023-05-05T00:28:26.513Z,99.67
2023-05-05T00:29:26.494Z,99.88
2023-05-05T00:30:26.508Z,99.77
2023-05-05T00:31:26.599Z,99.77
2023-05-05T00:32:26.471Z,99.88
2023-05-05T00:33:26.446Z,99.99
2023-05-05T00:34:26.433Z,99.98
2023-05-05T00:35:26.454Z,99.88
2023-05-05T00:36:26.436Z,99.67
2023-05-05T00:37:26.388Z,99.77
2023-05-05T00:38:26.404Z,99.67
2023-05-05T00:39:26.377Z,99.99
2023-05-05T00:40:26.390Z,99.88
2023-05-05T00:41:26.343Z,99.67
2023-05-05T00:42:26.406Z,99.77
2023-05-05T00:43:26.319Z,99.77
2023-05-05T00:44:26.363Z,99.67
2023-05-05T00:45:26.319Z,99.67
2023-05-05T00:46:26.332Z,99.57
2023-05-05T00:47:26.354Z,99.88
2023-05-05T00:48:26.272Z,99.88
2023-05-05T00:49:26.293Z,99.99
2023-05-05T00:50:26.244Z,99.99
2023-05-05T00:51:26.211Z,99.99
2023-05-05T00:52:26.416Z,99.99
2023-05-05T00:53:26.184Z,99.99
2023-05-05T00:54:26.211Z,99.98
2023-05-05T00:55:26.176Z,99.98
2023-05-05T00:56:26.169Z,99.88
2023-05-05T00:57:26.138Z,99.88
2023-05-05T00:58:26.155Z,99.88
2023-05-05T00:59:26.140Z,99.88
2023-05-05T01:00:26.110Z,99.88
2023-05-05T01:01:26.102Z,99.77
2023-05-05T01:02:26.134Z,99.57
2023-05-05T01:03:26.154Z,99.57
2023-05-05T01:04:26.041Z,99.47
2023-05-05T01:05:26.026Z,99.26
2023-05-05T01:06:26.021Z,99.16
2023-05-05T01:07:26.017Z,99.37
2023-05-05T01:08:26.021Z,99.16
2023-05-05T01:09:25.994Z,99.16
2023-05-05T01:10:26.289Z,99.26
2023-05-05T01:11:25.975Z,99.26
2023-05-05T01:12:25.978Z,99.16
2023-05-05T01:13:26.046Z,99.37
2023-05-05T01:14:25.917Z,99.26
2023-05-05T01:15:25.936Z,99.21
2023-05-05T01:16:25.929Z,99.10
2023-05-05T01:17:25.948Z,99.21
2023-05-05T01:18:25.877Z,99.51
2023-05-05T01:19:25.855Z,99.51
2023-05-05T01:20:25.851Z,99.41
2023-05-05T01:21:25.828Z,99.51
2023-05-05T01:22:25.855Z,99.51
2023-05-05T01:23:25.849Z,99.51
2023-05-05T01:24:25.823Z,99.62
2023-05-05T01:25:25.832Z,99.51
2023-05-05T01:26:25.778Z,99.41
2023-05-05T01:27:25.764Z,99.41
2023-05-05T01:28:25.761Z,99.41
2023-05-05T01:29:25.718Z,99.62
2023-05-05T01:30:25.732Z,99.93
2023-05-05T01:31:25.771Z,99.82
2023-05-05T01:32:25.710Z,99.72
2023-05-05T01:33:25.674Z,99.72
2023-05-05T01:34:25.673Z,99.62
2023-05-05T01:35:25.642Z,99.62
2023-05-05T01:36:25.667Z,99.72
2023-05-05T01:37:25.618Z,99.93
2023-05-05T01:38:25.620Z,99.72
2023-05-05T01:39:25.594Z,99.72
2023-05-05T01:40:25.606Z,99.72
2023-05-05T01:41:25.602Z,99.72
2023-05-05T01:42:25.560Z,99.72
2023-05-05T01:43:25.536Z,99.51
2023-05-05T01:44:25.533Z,99.51
2023-05-05T01:45:25.543Z,99.51
2023-05-05T01:46:25.513Z,99.51
2023-05-05T01:47:25.548Z,99.51
2023-05-05T01:48:25.472Z,99.56
2023-05-05T01:49:25.467Z,99.56
2023-05-05T01:50:25.478Z,99.66
2023-05-05T01:51:25.446Z,99.66
2023-05-05T01:52:25.421Z,99.66
2023-05-05T01:53:25.402Z,99.77
2023-05-05T01:54:25.432Z,99.87
2023-05-05T01:55:25.431Z,99.99
2023-05-05T01:56:25.384Z,99.99
2023-05-05T01:57:25.394Z,99.99
2023-05-05T01:58:25.396Z,99.99
2023-05-05T01:59:25.347Z,99.99
2023-05-05T02:00:25.315Z,99.99
2023-05-05T02:01:25.326Z,99.99
2023-05-05T02:02:25.334Z,99.93
2023-05-05T02:03:25.379Z,99.99
2023-05-05T02:04:25.298Z,99.82
2023-05-05T02:05:25.245Z,99.82
2023-05-05T02:06:25.241Z,99.93
2023-05-05T02:07:25.223Z,99.82
2023-05-05T02:08:25.253Z,99.72
2023-05-05T02:09:25.245Z,99.57
2023-05-05T02:10:25.183Z,99.51
2023-05-05T02:11:25.174Z,99.47
2023-05-05T02:12:25.159Z,99.31
2023-05-05T02:13:25.201Z,99.16
2023-05-05T02:14:25.147Z,99.31
2023-05-05T02:15:25.133Z,99.47
2023-05-05T02:16:25.151Z,99.37
2023-05-05T02:17:25.171Z,99.26
2023-05-05T02:18:25.126Z,99.26
2023-05-05T02:19:25.060Z,99.16
2023-05-05T02:20:25.088Z,98.96
2023-05-05T02:21:25.155Z,98.96
2023-05-05T02:22:25.054Z,98.96
2023-05-05T02:23:25.067Z,98.96
2023-05-05T02:24:25.015Z,98.96
2023-05-05T02:25:24.979Z,98.85
2023-05-05T02:26:25.009Z,98.85
2023-05-05T02:27:25.001Z,98.75
2023-05-05T02:28:24.957Z,98.69
2023-05-05T02:29:24.946Z,98.69
2023-05-05T02:30:24.936Z,98.90
2023-05-05T02:31:24.996Z,98.79
2023-05-05T02:32:24.953Z,98.90
2023-05-05T02:33:24.916Z,99.21
2023-05-05T02:34:24.889Z,99.21
2023-05-05T02:35:24.885Z,99.00
2023-05-05T02:36:24.892Z,99.00
2023-05-05T02:37:24.859Z,98.79
2023-05-05T02:38:24.823Z,98.90
2023-05-05T02:39:24.815Z,98.90
2023-05-05T02:40:24.816Z,98.90
2023-05-05T02:41:24.821Z,98.90
2023-05-05T02:42:24.796Z,98.79
2023-05-05T02:43:24.790Z,98.90
2023-05-05T02:44:24.785Z,98.90
2023-05-05T02:45:24.760Z,98.90
2023-05-05T02:46:24.784Z,99.10
2023-05-05T02:47:24.763Z,99.00
2023-05-05T02:48:24.709Z,98.90
2023-05-05T02:49:24.684Z,98.90
2023-05-05T02:50:24.700Z,98.90
2023-05-05T02:51:24.688Z,98.79
2023-05-05T02:52:24.643Z,98.69
2023-05-05T02:53:24.631Z,98.90
2023-05-05T02:54:24.620Z,99.00
2023-05-05T02:55:24.636Z,98.90
2023-05-05T02:56:24.602Z,98.84
2023-05-05T02:57:24.762Z,98.94
2023-05-05T02:58:24.582Z,99.05
2023-05-05T02:59:24.592Z,99.15
2023-05-05T03:00:24.583Z,99.15
2023-05-05T03:01:24.579Z,99.15
2023-05-05T03:02:24.630Z,99.09
2023-05-05T03:03:24.595Z,99.09
2023-05-05T03:04:24.535Z,99.30
2023-05-05T03:05:24.467Z,99.30
2023-05-05T03:06:24.459Z,99.71
2023-05-05T03:07:24.468Z,99.60
2023-05-05T03:08:24.448Z,99.51
2023-05-05T03:09:24.467Z,99.51
2023-05-05T03:10:24.408Z,99.71
2023-05-05T03:11:24.391Z,99.96
2023-05-05T03:12:24.413Z,99.99
2023-05-05T03:13:24.413Z,99.99
2023-05-05T03:14:24.389Z,99.99
2023-05-05T03:15:24.297Z,99.99
2023-05-05T03:16:24.370Z,99.99
2023-05-05T03:17:24.328Z,99.99
2023-05-05T03:18:24.314Z,99.99
2023-05-05T03:19:24.248Z,99.99
2023-05-05T03:20:24.239Z,99.99
2023-05-05T03:21:24.282Z,99.99
2023-05-05T03:22:24.218Z,99.99
2023-05-05T03:23:24.240Z,99.99
2023-05-05T03:24:24.179Z,99.99
2023-05-05T03:25:24.175Z,99.99
2023-05-05T03:26:24.173Z,99.99
2023-05-05T03:27:24.174Z,99.99
2023-05-05T03:28:24.165Z,99.99
2023-05-05T03:29:24.119Z,99.99
2023-05-05T03:30:24.120Z,99.99
2023-05-05T03:31:24.116Z,99.99
2023-05-05T03:32:24.155Z,99.99
2023-05-05T03:33:24.061Z,99.99
2023-05-05T03:34:24.052Z,99.99
2023-05-05T03:35:24.043Z,99.99
2023-05-05T03:36:24.055Z,99.99
2023-05-05T03:37:24.064Z,99.99
2023-05-05T03:38:23.999Z,99.99
2023-05-05T03:39:23.981Z,99.99
2023-05-05T03:40:36.265Z,99.99
2023-05-05T03:41:25.020Z,99.99
2023-05-05T03:42:23.995Z,99.99
2023-05-05T03:43:23.937Z,99.99
2023-05-05T03:44:23.935Z,99.99
2023-05-05T03:45:23.910Z,99.99
2023-05-05T03:46:23.938Z,99.99
2023-05-05T03:47:23.885Z,99.99
2023-05-05T03:48:23.874Z,99.99
2023-05-05T03:49:23.868Z,99.99
2023-05-05T03:50:23.842Z,99.99
2023-05-05T03:51:23.854Z,99.99
2023-05-05T03:52:23.826Z,99.99
2023-05-05T03:53:23.803Z,99.99
2023-05-05T03:54:23.821Z,99.99
2023-05-05T03:55:23.805Z,99.99
2023-05-05T03:56:23.799Z,99.99
2023-05-05T03:57:23.753Z,99.99
2023-05-05T03:58:23.748Z,99.99
2023-05-05T03:59:23.728Z,99.99
2023-05-05T04:00:23.771Z,99.99
2023-05-05T04:01:23.715Z,99.99
2023-05-05T04:02:23.784Z,99.99
2023-05-05T04:03:23.814Z,99.99
2023-05-05T04:04:23.732Z,99.99
2023-05-05T04:05:23.716Z,99.87
2023-05-05T04:06:23.641Z,99.77
2023-05-05T04:07:23.625Z,99.66
2023-05-05T04:08:23.623Z,99.77
2023-05-05T04:09:23.628Z,99.46
2023-05-05T04:10:23.617Z,99.46
2023-05-05T04:11:23.569Z,99.46
2023-05-05T04:12:23.579Z,99.35
2023-05-05T04:13:23.545Z,99.25
2023-05-05T04:14:23.568Z,99.15
2023-05-05T04:15:23.529Z,99.05
2023-05-05T04:16:23.660Z,99.05
2023-05-05T04:17:23.491Z,98.94
2023-05-05T04:18:23.502Z,99.05
2023-05-05T04:19:23.497Z,99.05
2023-05-05T04:20:23.460Z,99.15
2023-05-05T04:21:23.441Z,99.25
2023-05-05T04:22:23.445Z,98.79
2023-05-05T04:23:23.483Z,98.53
2023-05-05T04:24:23.438Z,98.49
2023-05-05T04:25:23.397Z,98.59
2023-05-05T04:26:23.433Z,98.69
2023-05-05T04:27:23.365Z,98.49
2023-05-05T04:28:23.393Z,98.49
2023-05-05T04:29:23.345Z,98.18
2023-05-05T04:30:23.332Z,98.18
2023-05-05T04:31:23.337Z,98.13
2023-05-05T04:32:23.348Z,98.18
2023-05-05T04:33:23.312Z,97.82
2023-05-05T04:34:23.275Z,97.92
2023-05-05T04:35:23.256Z,97.82
2023-05-05T04:36:23.266Z,97.82
2023-05-05T04:37:23.258Z,97.82
2023-05-05T04:38:23.293Z,97.62
2023-05-05T04:39:23.204Z,97.52
2023-05-05T04:40:23.203Z,97.52
2023-05-05T04:41:23.189Z,97.20
2023-05-05T04:42:23.196Z,97.20
2023-05-05T04:43:23.160Z,96.85
2023-05-05T04:44:23.148Z,96.75
2023-05-05T04:45:23.148Z,96.55
2023-05-05T04:46:23.161Z,96.34
2023-05-05T04:47:23.146Z,96.23
2023-05-05T04:48:23.094Z,96.23
2023-05-05T04:49:23.084Z,96.03
2023-05-05T04:50:23.066Z,96.03
2023-05-05T04:51:23.072Z,96.03
2023-05-05T04:52:23.065Z,96.03
2023-05-05T04:53:23.035Z,95.83
2023-05-05T04:54:23.014Z,95.93
2023-05-05T04:55:23.007Z,96.03
2023-05-05T04:56:23.017Z,95.72
2023-05-05T04:57:23.008Z,95.83
2023-05-05T04:58:22.966Z,96.03
2023-05-05T04:59:22.950Z,95.93
2023-05-05T05:00:22.956Z,95.72
2023-05-05T05:01:22.993Z,95.62
2023-05-05T05:02:22.984Z,95.62
2023-05-05T05:03:22.935Z,95.62
2023-05-05T05:04:22.973Z,95.21
2023-05-05T05:05:22.896Z,95.42
2023-05-05T05:06:22.866Z,95.52
2023-05-05T05:07:22.864Z,95.06
2023-05-05T05:08:22.865Z,94.65
2023-05-05T05:09:22.960Z,94.24
2023-05-05T05:10:22.849Z,94.24
2023-05-05T05:11:22.800Z,94.55
2023-05-05T05:12:22.789Z,94.20
2023-05-05T05:13:22.848Z,93.89
2023-05-05T05:14:22.783Z,93.79
2023-05-05T05:15:22.780Z,93.27
2023-05-05T05:16:22.733Z,93.23
2023-05-05T05:17:22.761Z,92.41
2023-05-05T05:18:22.703Z,92.31
2023-05-05T05:19:22.725Z,92.31
2023-05-05T05:20:22.721Z,92.06
2023-05-05T05:21:22.676Z,91.35
2023-05-05T05:22:22.677Z,90.73
2023-05-05T05:23:22.667Z,90.79
2023-05-05T05:24:22.658Z,90.37
2023-05-05T05:25:22.663Z,90.79
2023-05-05T05:26:22.620Z,90.17
2023-05-05T05:27:22.598Z,89.72
2023-05-05T05:28:22.569Z,89.21
2023-05-05T05:29:22.602Z,89.21
2023-05-05T05:30:22.537Z,88.70
2023-05-05T05:31:22.555Z,88.86
2023-05-05T05:32:22.533Z,88.86
2023-05-05T05:33:22.566Z,88.92
2023-05-05T05:34:22.531Z,88.31
2023-05-05T05:35:22.485Z,87.70
2023-05-05T05:36:22.472Z,87.65
2023-05-05T05:37:22.462Z,87.85
2023-05-05T05:38:22.472Z,87.10
2023-05-05T05:39:22.436Z,86.90
2023-05-05T05:40:22.408Z,87.00
2023-05-05T05:41:22.413Z,86.04
2023-05-05T05:42:22.387Z,85.53
2023-05-05T05:43:22.407Z,84.88
2023-05-05T05:44:22.359Z,84.77
2023-05-05T05:45:22.361Z,84.36
2023-05-05T05:46:22.335Z,84.63
2023-05-05T05:47:22.347Z,83.71
2023-05-05T05:48:22.338Z,83.37
2023-05-05T05:49:22.308Z,83.57
2023-05-05T05:50:22.290Z,83.57
2023-05-05T05:51:22.269Z,82.96
2023-05-05T05:52:22.300Z,82.41
2023-05-05T05:53:22.253Z,81.29
2023-05-05T05:54:22.231Z,81.70
2023-05-05T05:55:22.230Z,81.76
2023-05-05T05:56:22.194Z,82.17
2023-05-05T05:57:22.256Z,81.04
2023-05-05T05:58:22.182Z,81.35
2023-05-05T05:59:22.173Z,81.11
2023-05-05T06:00:22.151Z,80.40
2023-05-05T06:01:22.177Z,79.03
2023-05-05T06:02:22.215Z,78.42
2023-05-05T06:03:22.219Z,77.37
2023-05-05T06:04:22.151Z,77.98
2023-05-05T06:05:22.118Z,77.03
2023-05-05T06:06:22.104Z,76.52
2023-05-05T06:07:22.073Z,74.89
2023-05-05T06:08:24.311Z,76.21
2023-05-05T06:09:22.033Z,76.38
2023-05-05T06:10:27.998Z,76.79
2023-05-05T06:11:23.042Z,74.85
2023-05-05T06:12:21.994Z,74.55
2023-05-05T06:13:21.999Z,75.84
2023-05-05T06:14:21.973Z,74.92
2023-05-05T06:15:21.988Z,74.62
2023-05-05T06:16:22.023Z,73.84
2023-05-05T06:17:21.941Z,74.76
2023-05-05T06:18:21.977Z,75.46
2023-05-05T06:19:21.929Z,75.77
2023-05-05T06:20:21.928Z,76.59
2023-05-05T06:21:21.905Z,75.37
2023-05-05T06:22:21.866Z,76.42
2023-05-05T06:23:21.866Z,76.82
2023-05-05T06:24:21.845Z,76.11
2023-05-05T06:25:21.861Z,76.31
2023-05-05T06:26:21.805Z,76.11
2023-05-05T06:27:21.815Z,76.11
2023-05-05T06:28:21.785Z,75.40
2023-05-05T06:29:21.808Z,76.04
2023-05-05T06:30:21.857Z,75.33
2023-05-05T06:31:22.648Z,75.95
2023-05-05T06:32:21.740Z,76.45
2023-05-05T06:33:21.740Z,76.25
2023-05-05T06:34:22.202Z,77.87
2023-05-05T06:35:21.720Z,77.67
2023-05-05T06:36:21.707Z,77.78
2023-05-05T06:37:21.676Z,78.08
2023-05-05T06:38:21.662Z,78.55
2023-05-05T06:39:21.735Z,78.55
2023-05-05T06:40:21.643Z,78.48
2023-05-05T06:41:21.626Z,76.28
2023-05-05T06:42:21.605Z,75.32
2023-05-05T06:43:21.619Z,72.82
2023-05-05T06:44:21.606Z,71.30
2023-05-05T06:45:21.572Z,71.64
2023-05-05T06:46:21.596Z,72.72
2023-05-05T06:47:21.775Z,71.67
2023-05-05T06:48:21.571Z,70.65
2023-05-05T06:49:21.519Z,71.57
2023-05-05T06:50:21.504Z,70.89
2023-05-05T06:51:21.496Z,72.31
2023-05-05T06:52:21.477Z,70.62
2023-05-05T06:53:21.488Z,72.14
2023-05-05T06:54:21.457Z,71.40
2023-05-05T06:55:21.441Z,71.26
2023-05-05T06:56:21.420Z,69.92
2023-05-05T06:57:21.441Z,68.43
2023-05-05T06:58:21.416Z,69.14
2023-05-05T06:59:21.394Z,65.57
2023-05-05T07:00:21.374Z,65.92
2023-05-05T07:01:21.398Z,65.15
2023-05-05T07:02:21.384Z,63.67
2023-05-05T07:03:21.455Z,62.51
2023-05-05T07:04:21.313Z,60.36
2023-05-05T07:05:21.344Z,59.89
2023-05-05T07:06:21.290Z,61.93
2023-05-05T07:07:21.314Z,62.87
2023-05-05T07:08:21.270Z,65.89
2023-05-05T07:09:21.258Z,65.42
2023-05-05T07:10:21.239Z,65.45
2023-05-05T07:11:21.264Z,65.28
2023-05-05T07:12:21.286Z,65.11
2023-05-05T07:13:21.206Z,64.94
2023-05-05T07:14:22.762Z,65.57
2023-05-05T07:15:28.597Z,67.72
2023-05-05T07:16:22.220Z,68.16
2023-05-05T07:17:21.174Z,68.40
2023-05-05T07:18:21.223Z,69.21
2023-05-05T07:19:21.306Z,70.32
2023-05-05T07:20:21.108Z,70.93
2023-05-05T07:21:21.137Z,70.05
2023-05-05T07:22:21.261Z,71.30
2023-05-05T07:23:21.079Z,71.20
2023-05-05T07:24:21.068Z,72.14
2023-05-05T07:25:21.321Z,72.75
2023-05-05T07:26:22.058Z,73.39
2023-05-05T07:27:21.024Z,73.93
2023-05-05T07:28:21.005Z,73.43
2023-05-05T07:29:21.100Z,73.93
2023-05-05T07:30:21.330Z,74.48
2023-05-05T07:31:20.980Z,75.43
2023-05-05T07:32:21.055Z,76.44
2023-05-05T07:33:20.953Z,78.98
2023-05-05T07:34:20.946Z,80.24
2023-05-05T07:35:20.956Z,82.87
2023-05-05T07:36:20.892Z,86.68
2023-05-05T07:37:20.909Z,89.36
2023-05-05T07:38:20.876Z,89.70
2023-05-05T07:39:20.904Z,89.81
2023-05-05T07:40:20.883Z,93.10
2023-05-05T07:41:20.949Z,94.12
2023-05-05T07:42:20.835Z,94.73
2023-05-05T07:43:20.816Z,94.78
2023-05-05T07:44:21.512Z,95.18
2023-05-05T07:45:20.829Z,95.54
2023-05-05T07:46:20.810Z,95.65
2023-05-05T07:47:20.783Z,95.75
2023-05-05T07:48:20.858Z,96.36
2023-05-05T07:49:20.882Z,96.26
2023-05-05T07:50:20.745Z,96.72
2023-05-05T07:51:21.485Z,95.61
2023-05-05T07:52:30.087Z,95.20
2023-05-05T07:53:21.731Z,95.09
2023-05-05T07:54:20.773Z,94.59
2023-05-05T07:55:20.656Z,94.69
2023-05-05T07:56:21.803Z,94.79
2023-05-05T07:57:20.634Z,94.13
2023-05-05T07:58:20.651Z,94.44
2023-05-05T07:59:20.617Z,94.64
2023-05-05T08:00:20.654Z,94.64
2023-05-05T08:01:20.584Z,95.36
2023-05-05T08:02:20.677Z,96.27
2023-05-05T08:03:20.738Z,96.43
2023-05-05T08:04:21.802Z,96.43
2023-05-05T08:05:21.524Z,96.63
2023-05-05T08:06:20.852Z,96.79
2023-05-05T08:07:20.935Z,97.05
2023-05-05T08:08:24.926Z,94.45
2023-05-05T08:09:21.381Z,94.96
2023-05-05T08:10:20.744Z,95.83
2023-05-05T08:11:20.637Z,95.94
2023-05-05T08:12:21.322Z,96.23
2023-05-05T08:13:23.885Z,96.19
2023-05-05T08:14:24.212Z,95.28
2023-05-05T08:15:20.640Z,94.98
2023-05-05T08:16:20.686Z,94.57
2023-05-05T08:17:21.859Z,94.87
2023-05-05T08:18:20.534Z,95.58
2023-05-05T08:19:28.906Z,94.87
2023-05-05T08:20:21.510Z,95.13
2023-05-05T08:21:21.587Z,95.34
2023-05-05T08:22:20.646Z,95.13
2023-05-05T08:23:24.211Z,95.03
2023-05-05T08:24:20.499Z,95.03
2023-05-05T08:25:25.801Z,94.73
2023-05-05T08:26:23.682Z,94.93
2023-05-05T08:27:20.792Z,94.42
2023-05-05T08:28:21.106Z,94.83
2023-05-05T08:29:20.466Z,94.53
2023-05-05T08:30:21.778Z,95.13
2023-05-05T08:31:20.513Z,95.50
2023-05-05T08:32:20.749Z,94.48
2023-05-05T08:33:21.237Z,93.93
2023-05-05T08:34:20.385Z,93.52
2023-05-05T08:35:20.419Z,93.12
2023-05-05T08:36:23.963Z,92.82
2023-05-05T08:37:20.368Z,92.47
2023-05-05T08:38:20.283Z,91.80
2023-05-05T08:39:20.360Z,92.06
2023-05-05T08:40:20.985Z,93.38
2023-05-05T08:41:20.091Z,91.96
2023-05-05T08:42:29.290Z,92.06
2023-05-05T08:43:21.027Z,92.26
2023-05-05T08:44:20.025Z,92.42
2023-05-05T08:45:20.044Z,91.41
2023-05-05T08:46:20.030Z,91.35
2023-05-05T08:47:20.534Z,91.35
2023-05-05T08:48:19.967Z,91.86
2023-05-05T08:49:20.068Z,92.97
2023-05-05T08:50:19.964Z,93.07
2023-05-05T08:51:19.948Z,93.48
2023-05-05T08:52:19.966Z,92.21
2023-05-05T08:53:19.937Z,93.02
2023-05-05T08:54:19.921Z,93.32
2023-05-05T08:55:19.891Z,93.38
2023-05-05T08:56:20.081Z,93.58
2023-05-05T08:57:19.911Z,92.47
2023-05-05T08:58:19.933Z,93.38
2023-05-05T08:59:20.404Z,93.63
2023-05-05T09:00:19.972Z,93.43
2023-05-05T09:01:19.859Z,93.43
2023-05-05T09:02:19.974Z,93.54
2023-05-05T09:03:19.940Z,93.59
2023-05-05T09:04:19.795Z,92.58
2023-05-05T09:05:19.748Z,92.74
2023-05-05T09:06:19.880Z,92.94
2023-05-05T09:07:19.847Z,93.30
2023-05-05T09:08:19.887Z,92.29
2023-05-05T09:09:19.716Z,92.29
2023-05-05T09:10:19.730Z,92.49
2023-05-05T09:11:19.860Z,92.09
2023-05-05T09:12:20.406Z,91.34
2023-05-05T09:13:20.259Z,92.55
2023-05-05T09:14:19.803Z,93.12
2023-05-05T09:15:19.888Z,91.39
2023-05-05T09:16:19.688Z,91.80
2023-05-05T09:17:19.616Z,91.96
2023-05-05T09:18:19.910Z,92.06
2023-05-05T09:19:19.559Z,91.91
2023-05-05T09:20:19.593Z,90.91
2023-05-05T09:21:19.539Z,90.46
2023-05-05T09:22:19.636Z,89.86
2023-05-05T09:23:19.514Z,87.13
2023-05-05T09:24:19.506Z,87.94
2023-05-05T09:25:19.480Z,89.55
2023-05-05T09:26:19.481Z,90.32
2023-05-05T09:27:19.496Z,86.89
2023-05-05T09:28:19.453Z,87.70
2023-05-05T09:29:19.426Z,88.30
2023-05-05T09:30:19.419Z,87.25
2023-05-05T09:31:19.458Z,86.24
2023-05-05T09:32:19.428Z,86.24
2023-05-05T09:33:19.393Z,86.85
2023-05-05T09:34:19.465Z,86.24
2023-05-05T09:35:19.365Z,86.71
2023-05-05T09:36:19.423Z,84.43
2023-05-05T09:37:19.331Z,85.03
2023-05-05T09:38:19.320Z,85.03
2023-05-05T09:39:19.320Z,88.22
2023-05-05T09:40:20.193Z,86.77
2023-05-05T09:41:19.301Z,86.46
2023-05-05T09:42:20.076Z,85.82
2023-05-05T09:43:19.995Z,84.88
2023-05-05T09:44:19.481Z,84.74
2023-05-05T09:45:19.336Z,84.43
2023-05-05T09:46:19.426Z,84.29
2023-05-05T09:47:29.434Z,83.15
2023-05-05T09:48:20.240Z,83.71
2023-05-05T09:49:19.777Z,83.37
2023-05-05T09:50:19.335Z,83.43
2023-05-05T09:51:19.147Z,82.35
2023-05-05T09:52:19.142Z,78.67
2023-05-05T09:53:19.125Z,74.56
2023-05-05T09:54:19.243Z,78.83
2023-05-05T09:55:19.356Z,77.43
2023-05-05T09:56:19.200Z,75.59
2023-05-05T09:57:19.104Z,75.23
2023-05-05T09:58:19.263Z,76.73
2023-05-05T09:59:19.471Z,74.37
2023-05-05T10:00:19.243Z,75.46
2023-05-05T10:01:19.038Z,76.17
2023-05-05T10:02:19.176Z,74.30
2023-05-05T10:03:19.000Z,71.09
2023-05-05T10:04:19.963Z,75.93
2023-05-05T10:05:19.259Z,76.54
2023-05-05T10:06:19.004Z,76.94
2023-05-05T10:07:19.051Z,74.54
2023-05-05T10:08:19.026Z,75.93
2023-05-05T10:09:19.172Z,76.43
2023-05-05T10:10:19.025Z,77.10
2023-05-05T10:11:18.975Z,75.96
2023-05-05T10:12:18.879Z,74.16
2023-05-05T10:13:19.005Z,71.53
2023-05-05T10:14:19.470Z,71.69
2023-05-05T10:15:18.841Z,71.29
2023-05-05T10:16:18.889Z,70.76
2023-05-05T10:17:18.918Z,72.22
2023-05-05T10:18:18.848Z,71.12
2023-05-05T10:19:18.957Z,68.52
2023-05-05T10:20:18.818Z,69.43
2023-05-05T10:21:18.771Z,72.09
2023-05-05T10:22:18.752Z,67.76
2023-05-05T10:23:18.933Z,64.94
2023-05-05T10:24:18.723Z,67.30
2023-05-05T10:25:19.334Z,65.11
2023-05-05T10:26:18.758Z,66.37
2023-05-05T10:27:18.791Z,66.27
2023-05-05T10:28:19.515Z,67.40
2023-05-05T10:29:18.674Z,65.91
2023-05-05T10:30:18.828Z,64.21
2023-05-05T10:31:25.813Z,66.13
2023-05-05T10:32:47.306Z,63.71
2023-05-05T10:33:31.588Z,66.50
2023-05-05T10:34:19.623Z,61.02
2023-05-05T10:35:18.658Z,61.41
2023-05-05T10:36:18.968Z,64.71
2023-05-05T10:37:18.576Z,66.77
2023-05-05T10:38:18.566Z,64.18
2023-05-05T10:39:18.586Z,64.78
2023-05-05T10:40:18.522Z,64.64
2023-05-05T10:41:18.535Z,59.44
2023-05-05T10:42:19.494Z,60.13
2023-05-05T10:43:18.599Z,62.10
2023-05-05T10:44:19.287Z,63.69
2023-05-05T10:45:18.582Z,59.91
2023-05-05T10:46:18.494Z,58.94
2023-05-05T10:47:18.532Z,59.56
2023-05-05T10:48:18.606Z,60.09
2023-05-05T10:49:18.614Z,62.18
2023-05-05T10:50:18.397Z,61.29
2023-05-05T10:51:27.500Z,59.49
2023-05-05T10:52:19.507Z,60.59
2023-05-05T10:53:18.430Z,63.75
2023-05-05T10:54:18.431Z,67.70
2023-05-05T10:55:18.344Z,60.00
2023-05-05T10:56:18.565Z,62.10
2023-05-05T10:57:19.094Z,58.58
2023-05-05T10:58:18.409Z,58.98
2023-05-05T10:59:18.853Z,58.01
2023-05-05T11:00:18.440Z,60.21
2023-05-05T11:01:18.275Z,59.51
2023-05-05T11:02:18.270Z,56.82
2023-05-05T11:03:18.494Z,64.95
2023-05-05T11:04:18.232Z,60.90
2023-05-05T11:05:19.122Z,62.02
2023-05-05T11:06:18.185Z,59.53
2023-05-05T11:07:18.346Z,56.38
2023-05-05T11:08:18.149Z,57.10
2023-05-05T11:09:19.108Z,56.87
2023-05-05T11:10:18.577Z,58.76
2023-05-05T11:11:18.322Z,59.64
2023-05-05T11:12:18.271Z,64.51
2023-05-05T11:13:18.387Z,59.31
2023-05-05T11:14:18.449Z,57.77
2023-05-05T11:15:18.597Z,59.36
2023-05-05T11:16:18.594Z,58.29
2023-05-05T11:17:18.035Z,62.21
2023-05-05T11:18:18.024Z,59.92
2023-05-05T11:19:18.024Z,61.91
2023-05-05T11:20:17.996Z,61.05
2023-05-05T11:21:17.981Z,63.84
2023-05-05T11:22:17.973Z,62.74
2023-05-05T11:23:17.976Z,59.65
2023-05-05T11:24:17.968Z,58.65
2023-05-05T11:25:17.930Z,58.83
2023-05-05T11:26:17.925Z,57.73
2023-05-05T11:27:18.157Z,60.85
2023-05-05T11:28:18.746Z,62.15
2023-05-05T11:29:17.864Z,60.95
2023-05-05T11:30:17.990Z,60.05
2023-05-05T11:31:18.709Z,60.02
2023-05-05T11:32:17.956Z,61.52
2023-05-05T11:33:17.970Z,57.73
2023-05-05T11:34:17.986Z,58.62
2023-05-05T11:35:17.784Z,61.15
2023-05-05T11:36:17.811Z,60.95
2023-05-05T11:37:17.806Z,60.45
2023-05-05T11:38:17.781Z,60.45
2023-05-05T11:39:18.015Z,61.94
2023-05-05T11:40:17.733Z,62.57
2023-05-05T11:41:17.803Z,62.81
2023-05-05T11:42:17.876Z,63.10
2023-05-05T11:43:17.758Z,64.03
2023-05-05T11:44:18.613Z,65.13
2023-05-05T11:45:17.873Z,65.73
2023-05-05T11:46:17.661Z,65.36
2023-05-05T11:47:17.746Z,67.09
2023-05-05T11:48:18.483Z,66.89
2023-05-05T11:49:17.754Z,65.19
2023-05-05T11:50:17.802Z,65.36
2023-05-05T11:51:17.612Z,65.56
2023-05-05T11:52:17.600Z,65.76
2023-05-05T11:53:17.546Z,65.73
2023-05-05T11:54:17.533Z,67.72
2023-05-05T11:55:17.511Z,65.50
2023-05-05T11:56:17.607Z,60.95
2023-05-05T11:57:17.496Z,61.52
2023-05-05T11:58:17.485Z,61.39
2023-05-05T11:59:17.473Z,63.01
2023-05-05T12:00:17.454Z,61.79
2023-05-05T12:01:17.488Z,63.75
2023-05-05T12:02:17.482Z,61.33
2023-05-05T12:03:17.520Z,65.51
2023-05-05T12:04:17.534Z,60.70
2023-05-05T12:05:17.414Z,59.48
2023-05-05T12:06:17.372Z,62.93
2023-05-05T12:07:17.459Z,64.59
2023-05-05T12:08:17.372Z,61.31
2023-05-05T12:09:17.339Z,62.73
2023-05-05T12:10:17.358Z,60.14
2023-05-05T12:11:17.308Z,64.45
2023-05-05T12:12:17.303Z,60.21
2023-05-05T12:13:17.306Z,61.43
2023-05-05T12:14:17.288Z,61.25
2023-05-05T12:15:17.282Z,62.68
2023-05-05T12:16:17.549Z,59.89
2023-05-05T12:17:17.551Z,64.51
2023-05-05T12:18:17.256Z,64.11
2023-05-05T12:19:17.298Z,65.01
2023-05-05T12:20:17.189Z,61.71
2023-05-05T12:21:17.229Z,59.42
2023-05-05T12:22:17.192Z,60.52
2023-05-05T12:23:17.173Z,63.01
2023-05-05T12:24:17.183Z,64.11
2023-05-05T12:25:17.119Z,62.01
2023-05-05T12:26:17.117Z,62.21
2023-05-05T12:27:17.100Z,63.11
2023-05-05T12:28:17.162Z,60.92
2023-05-05T12:29:17.100Z,63.94
2023-05-05T12:30:17.091Z,65.44
2023-05-05T12:31:17.072Z,64.84
2023-05-05T12:32:17.338Z,62.48
2023-05-05T12:33:17.044Z,65.97
2023-05-05T12:34:17.009Z,64.97
2023-05-05T12:35:17.011Z,66.39
2023-05-05T12:36:17.023Z,66.43
2023-05-05T12:37:16.983Z,67.83
2023-05-05T12:38:16.954Z,68.56
2023-05-05T12:39:16.935Z,69.09
2023-05-05T12:40:16.935Z,69.39
2023-05-05T12:41:16.944Z,68.43
2023-05-05T12:42:16.912Z,68.93
2023-05-05T12:43:16.916Z,71.16
2023-05-05T12:44:17.019Z,71.46
2023-05-05T12:45:16.841Z,70.09
2023-05-05T12:46:16.879Z,68.29
2023-05-05T12:47:17.548Z,71.23
2023-05-05T12:48:17.563Z,70.23
2023-05-05T12:49:17.576Z,69.02
2023-05-05T12:50:16.794Z,69.76
2023-05-05T12:51:16.779Z,72.47
2023-05-05T12:52:16.808Z,69.66